createdAt,value
2023-05-20T00:00:31.135Z,14.40
2023-05-20T00:02:58.182Z,14.40
2023-05-20T00:05:26.603Z,14.50
2023-05-20T00:07:53.582Z,14.40
2023-05-20T00:10:20.845Z,14.40
2023-05-20T00:12:47.820Z,14.40
2023-05-20T00:15:14.869Z,14.40
2023-05-20T00:17:41.936Z,14.40
2023-05-20T00:20:09.618Z,14.20
2023-05-20T00:22:38.135Z,14.20
2023-05-20T00:25:05.807Z,14.20
2023-05-20T00:27:32.747Z,14.20
2023-05-20T00:29:59.704Z,14.10
2023-05-20T00:32:27.023Z,14.00
2023-05-20T00:34:57.488Z,14.00
2023-05-20T00:37:24.548Z,14.00
2023-05-20T00:39:53.172Z,14.00
2023-05-20T00:42:20.897Z,14.00
2023-05-20T00:44:48.213Z,14.00
2023-05-20T00:47:15.938Z,14.00
2023-05-20T00:49:47.578Z,14.00
2023-05-20T00:52:17.567Z,14.00
2023-05-20T00:54:45.094Z,14.00
2023-05-20T00:57:13.899Z,14.00
2023-05-20T00:59:42.327Z,14.10
2023-05-20T01:02:11.231Z,14.10
2023-05-20T01:04:38.409Z,14.00
2023-05-20T01:07:06.632Z,14.10
2023-05-20T01:09:33.940Z,14.10
2023-05-20T01:12:06.210Z,14.20
2023-05-20T01:14:41.759Z,14.10
2023-05-20T01:17:10.354Z,14.00
2023-05-20T01:19:42.243Z,14.00
2023-05-20T01:22:10.699Z,14.00
2023-05-20T01:24:39.795Z,14.00
2023-05-20T01:27:06.989Z,14.00
2023-05-20T01:29:33.998Z,14.00
2023-05-20T01:32:01.923Z,14.00
2023-05-20T01:34:29.041Z,13.90
2023-05-20T01:36:56.803Z,13.90
2023-05-20T01:39:24.782Z,13.90
2023-05-20T01:41:54.121Z,13.80
2023-05-20T01:44:21.543Z,13.80
2023-05-20T01:46:49.835Z,13.80
2023-05-20T01:49:16.850Z,13.80
2023-05-20T01:51:43.930Z,13.80
2023-05-20T01:54:10.894Z,13.80
2023-05-20T01:56:37.935Z,13.70
2023-05-20T01:59:06.471Z,13.70
2023-05-20T02:01:33.474Z,13.70
2023-05-20T02:04:00.557Z,13.70
2023-05-20T02:06:27.592Z,13.70
2023-05-20T02:08:54.643Z,13.70
2023-05-20T02:11:21.590Z,13.60
2023-05-20T02:13:49.799Z,13.60
2023-05-20T02:16:18.333Z,13.60
2023-05-20T02:18:45.597Z,13.50
2023-05-20T02:21:12.637Z,13.40
2023-05-20T02:23:39.620Z,13.40
2023-05-20T02:26:06.673Z,13.40
2023-05-20T02:28:33.669Z,13.40
2023-05-20T02:31:00.886Z,13.30
2023-05-20T02:33:29.381Z,13.30
2023-05-20T02:35:56.471Z,13.30
2023-05-20T02:38:23.444Z,13.30
2023-05-20T02:40:50.391Z,13.30
2023-05-20T02:43:17.431Z,13.30
2023-05-20T02:45:44.900Z,13.30
2023-05-20T02:48:12.099Z,13.30
2023-05-20T02:50:40.630Z,13.30
2023-05-20T02:53:07.643Z,13.20
2023-05-20T02:55:35.384Z,13.30
2023-05-20T02:58:02.659Z,13.30
2023-05-20T03:00:29.728Z,13.20
2023-05-20T03:02:56.757Z,13.20
2023-05-20T03:05:23.862Z,13.20
2023-05-20T03:07:52.283Z,13.10
2023-05-20T03:10:19.285Z,13.10
2023-05-20T03:12:46.327Z,13.10
2023-05-20T03:15:13.373Z,13.10
2023-05-20T03:17:40.389Z,13.00
2023-05-20T03:20:08.445Z,13.00
2023-05-20T03:22:35.454Z,13.00
2023-05-20T03:25:04.502Z,13.00
2023-05-20T03:27:31.461Z,12.90
2023-05-20T03:29:58.484Z,12.80
2023-05-20T03:32:25.464Z,12.80
2023-05-20T03:34:52.411Z,12.90
2023-05-20T03:37:19.403Z,12.80
2023-05-20T03:39:46.335Z,12.70
2023-05-20T03:42:14.642Z,12.80
2023-05-20T03:44:41.626Z,12.70
2023-05-20T03:47:08.594Z,12.80
2023-05-20T03:49:35.658Z,12.70
2023-05-20T03:52:02.670Z,12.60
2023-05-20T03:54:29.712Z,12.60
2023-05-20T03:56:56.787Z,12.60
2023-05-20T03:59:25.199Z,12.70
2023-05-20T04:01:52.263Z,12.60
2023-05-20T04:04:19.402Z,12.60
2023-05-20T04:06:46.467Z,12.50
2023-05-20T04:09:13.459Z,12.50
2023-05-20T04:11:40.453Z,12.50
2023-05-20T04:14:08.998Z,12.50
2023-05-20T04:16:37.498Z,12.50
2023-05-20T04:19:04.713Z,12.50
2023-05-20T04:21:31.719Z,12.50
2023-05-20T04:23:58.862Z,12.50
2023-05-20T04:26:25.892Z,12.50
2023-05-20T04:28:52.792Z,12.50
2023-05-20T04:31:19.773Z,12.60
2023-05-20T04:33:48.227Z,12.50
2023-05-20T04:36:16.090Z,12.50
2023-05-20T04:38:43.125Z,12.60
2023-05-20T04:41:10.308Z,12.50
2023-05-20T04:43:37.324Z,12.50
2023-05-20T04:46:04.374Z,12.50
2023-05-20T04:48:31.567Z,12.60
2023-05-20T04:50:59.981Z,12.60
2023-05-20T04:53:26.931Z,12.60
2023-05-20T04:55:55.451Z,12.60
2023-05-20T04:58:22.563Z,12.70
2023-05-20T05:00:49.714Z,12.70
2023-05-20T05:03:17.091Z,12.70
2023-05-20T05:05:44.187Z,12.80
2023-05-20T05:08:12.523Z,12.90
2023-05-20T05:10:39.558Z,13.00
2023-05-20T05:13:06.502Z,13.00
2023-05-20T05:15:33.668Z,13.00
2023-05-20T05:18:00.812Z,13.10
2023-05-20T05:20:27.842Z,13.00
2023-05-20T05:22:55.121Z,13.10
2023-05-20T05:25:23.576Z,13.20
2023-05-20T05:27:50.609Z,13.20
2023-05-20T05:30:17.667Z,13.30
2023-05-20T05:32:45.173Z,13.40
2023-05-20T05:35:12.568Z,13.40
2023-05-20T05:37:39.581Z,13.50
2023-05-20T05:40:07.957Z,13.40
2023-05-20T05:42:36.399Z,13.60
2023-05-20T05:45:03.849Z,13.70
2023-05-20T05:47:30.852Z,13.90
2023-05-20T05:49:57.894Z,13.90
2023-05-20T05:52:24.914Z,13.90
2023-05-20T05:54:51.911Z,14.00
2023-05-20T05:57:19.106Z,13.90
2023-05-20T05:59:47.434Z,14.00
2023-05-20T06:02:14.850Z,13.90
2023-05-20T06:04:41.854Z,14.00
2023-05-20T06:07:09.008Z,14.80
2023-05-20T06:09:36.014Z,16.00
2023-05-20T06:12:03.262Z,17.00
2023-05-20T06:14:30.459Z,17.60
2023-05-20T06:16:59.004Z,18.20
2023-05-20T06:19:26.137Z,18.70
2023-05-20T06:21:53.121Z,19.40
2023-05-20T06:24:21.371Z,19.90
2023-05-20T06:26:49.356Z,20.30
2023-05-20T06:29:16.359Z,19.90
2023-05-20T06:31:43.380Z,20.10
2023-05-20T06:34:11.719Z,20.30
2023-05-20T06:36:38.710Z,20.70
2023-05-20T06:39:05.874Z,20.80
2023-05-20T06:41:32.825Z,21.00
2023-05-20T06:43:59.795Z,21.20
2023-05-20T06:46:26.839Z,20.70
2023-05-20T06:48:53.869Z,20.80
2023-05-20T06:51:22.417Z,21.10
2023-05-20T06:53:49.713Z,21.70
2023-05-20T06:56:16.775Z,21.90
2023-05-20T06:58:43.728Z,22.40
2023-05-20T07:01:10.777Z,22.30
2023-05-20T07:03:37.862Z,21.80
2023-05-20T07:06:04.946Z,21.50
2023-05-20T07:08:33.373Z,21.70
2023-05-20T07:11:00.374Z,21.60
2023-05-20T07:13:27.343Z,21.70
2023-05-20T07:15:54.417Z,21.70
2023-05-20T07:18:21.453Z,21.50
2023-05-20T07:20:48.449Z,21.40
2023-05-20T07:23:15.997Z,21.40
2023-05-20T07:25:44.444Z,21.70
2023-05-20T07:28:12.227Z,21.70
2023-05-20T07:30:39.291Z,21.60
2023-05-20T07:33:06.308Z,21.40
2023-05-20T07:35:33.619Z,21.20
2023-05-20T07:38:00.765Z,21.00
2023-05-20T07:40:27.778Z,21.00
2023-05-20T09:40:32.386Z,21.80
2023-05-20T09:43:02.875Z,21.40
2023-05-20T09:45:30.184Z,21.70
2023-05-20T09:47:59.533Z,21.90
2023-05-20T09:50:27.402Z,22.00
2023-05-20T09:52:55.100Z,22.00
2023-05-20T09:55:24.954Z,22.20
2023-05-20T09:57:54.136Z,22.40
2023-05-20T10:00:21.118Z,22.30
2023-05-20T10:02:50.189Z,22.40
2023-05-20T10:05:19.981Z,22.40
2023-05-20T10:08:30.836Z,22.70
2023-05-20T10:11:06.912Z,22.60
2023-05-20T10:13:50.473Z,22.70
2023-05-20T10:16:29.245Z,23.00
2023-05-20T10:19:06.886Z,23.20
2023-05-20T10:21:33.976Z,23.70
2023-05-20T10:24:06.890Z,23.90
2023-05-20T10:26:36.164Z,24.00
2023-05-20T10:29:15.284Z,23.80
2023-05-20T10:31:45.522Z,24.10
2023-05-20T10:34:15.787Z,24.30
2023-05-20T10:36:46.276Z,24.50
2023-05-20T10:39:15.829Z,24.40
2023-05-20T10:41:42.978Z,24.20
2023-05-20T10:44:11.599Z,24.30
2023-05-20T10:46:59.855Z,24.10
2023-05-20T10:49:34.223Z,24.10
2023-05-20T10:52:01.224Z,23.80
2023-05-20T10:54:28.472Z,23.70
2023-05-20T10:56:55.809Z,24.00
2023-05-20T10:59:24.399Z,24.00
2023-05-20T11:01:51.679Z,23.80
2023-05-20T11:04:18.966Z,23.80
2023-05-20T11:06:52.408Z,24.10
2023-05-20T11:09:19.407Z,24.60
2023-05-20T11:11:46.629Z,24.40
2023-05-20T11:14:13.694Z,24.30
2023-05-20T11:16:42.250Z,24.20
2023-05-20T11:19:14.454Z,24.10
2023-05-20T11:21:43.851Z,24.10
2023-05-20T11:24:10.954Z,24.30
2023-05-20T11:26:38.171Z,24.60
2023-05-20T11:29:05.271Z,24.90
2023-05-20T11:31:32.486Z,24.80
2023-05-20T11:34:01.417Z,25.10
2023-05-20T11:36:28.602Z,24.90
2023-05-20T11:38:57.015Z,24.40
2023-05-20T11:41:24.698Z,24.40
2023-05-20T11:43:57.235Z,24.80
2023-05-20T11:46:24.305Z,24.60
2023-05-20T11:48:54.731Z,24.50
2023-05-20T11:51:27.636Z,24.40
2023-05-20T11:53:59.199Z,24.90
2023-05-20T11:56:28.311Z,25.30
2023-05-20T11:58:57.597Z,25.50
2023-05-20T12:01:24.800Z,25.50
2023-05-20T12:03:52.336Z,25.30
2023-05-20T12:06:19.886Z,25.10
2023-05-20T12:08:48.362Z,24.90
2023-05-20T12:11:15.503Z,24.90
2023-05-20T12:13:42.463Z,24.90
2023-05-20T12:16:09.488Z,24.80
2023-05-20T12:18:36.457Z,24.10
2023-05-20T12:21:03.501Z,24.00
2023-05-20T12:23:30.512Z,24.50
2023-05-20T12:25:58.827Z,24.60
2023-05-20T12:28:26.155Z,24.50
2023-05-20T12:30:54.160Z,24.50
2023-05-20T12:33:21.353Z,24.60
2023-05-20T12:35:48.362Z,24.20
2023-05-20T12:38:15.968Z,23.70
2023-05-20T12:40:43.009Z,23.70
2023-05-20T12:43:11.644Z,24.20
2023-05-20T12:45:38.795Z,24.40
2023-05-20T12:48:06.425Z,24.70
2023-05-20T12:50:33.733Z,24.60
2023-05-20T12:53:00.951Z,24.80
2023-05-20T12:55:30.232Z,24.60
2023-05-20T12:57:57.590Z,24.20
2023-05-20T13:00:26.107Z,23.90
2023-05-20T13:02:53.328Z,23.90
2023-05-20T13:05:22.867Z,23.70
2023-05-20T13:07:49.898Z,23.80
2023-05-20T13:10:17.531Z,24.10
2023-05-20T13:12:44.687Z,24.40
2023-05-20T13:15:12.206Z,24.80
2023-05-20T13:17:40.786Z,25.20
2023-05-20T13:20:09.277Z,25.30
2023-05-20T13:22:36.319Z,25.00
2023-05-20T13:25:03.717Z,25.20
2023-05-20T13:27:30.812Z,25.40
2023-05-20T13:30:05.064Z,25.20
2023-05-20T13:32:32.118Z,24.80
2023-05-20T13:35:00.594Z,24.30
2023-05-20T13:37:27.588Z,23.80
2023-05-20T13:39:54.662Z,23.50
2023-05-20T13:42:21.820Z,23.40
2023-05-20T13:44:48.887Z,23.40
2023-05-20T13:47:15.891Z,23.40
2023-05-20T13:49:42.914Z,23.70
2023-05-20T13:52:11.370Z,24.20
2023-05-20T13:54:38.497Z,24.50
2023-05-20T13:57:05.915Z,24.60
2023-05-20T13:59:32.966Z,24.20
2023-05-20T14:02:00.094Z,24.00
2023-05-20T14:04:27.354Z,23.70
2023-05-20T14:06:54.674Z,23.40
2023-05-20T14:09:23.082Z,23.40
2023-05-20T14:11:50.029Z,23.60
2023-05-20T14:14:17.028Z,23.60
2023-05-20T14:16:44.032Z,23.50
2023-05-20T14:19:11.211Z,23.30
2023-05-20T14:21:38.290Z,23.10
2023-05-20T14:24:05.789Z,23.30
2023-05-20T14:26:34.804Z,23.10
2023-05-20T14:29:02.098Z,22.80
2023-05-20T14:31:29.090Z,22.90
2023-05-20T14:33:56.111Z,23.00
2023-05-20T14:36:23.126Z,23.10
2023-05-20T14:38:50.155Z,23.00
2023-05-20T14:41:17.119Z,22.90
2023-05-20T14:43:45.496Z,22.80
2023-05-20T14:46:12.463Z,22.90
2023-05-20T14:48:39.455Z,22.80
2023-05-20T14:51:06.438Z,22.80
2023-05-20T14:53:33.401Z,22.70
2023-05-20T14:56:00.575Z,22.60
2023-05-20T14:58:27.588Z,22.60
2023-05-20T15:00:56.067Z,22.60
2023-05-20T15:03:23.533Z,22.60
2023-05-20T15:05:50.834Z,22.60
2023-05-20T15:08:17.766Z,22.70
2023-05-20T15:10:44.761Z,22.60
2023-05-20T15:13:11.773Z,22.50
2023-05-20T15:15:38.828Z,22.50
2023-05-20T15:18:07.205Z,22.50
2023-05-20T15:20:34.464Z,22.50
2023-05-20T15:23:01.436Z,22.50
2023-05-20T15:25:28.372Z,22.50
2023-05-20T15:27:55.410Z,22.50
2023-05-20T15:30:22.522Z,22.50
2023-05-20T15:32:49.762Z,22.40
2023-05-20T15:35:18.266Z,22.50
2023-05-20T15:37:45.324Z,22.50
2023-05-20T15:40:13.290Z,22.50
2023-05-20T15:42:40.349Z,22.80
2023-05-20T15:45:09.923Z,23.00
2023-05-20T15:47:39.165Z,22.80
2023-05-20T15:50:08.322Z,23.00
2023-05-20T15:52:36.761Z,23.10
2023-05-20T15:55:04.331Z,23.00
2023-05-20T15:57:34.800Z,23.10
2023-05-20T16:00:02.270Z,22.90
2023-05-20T16:02:29.493Z,22.60
2023-05-20T16:04:56.634Z,22.60
2023-05-20T16:07:23.932Z,22.70
2023-05-20T16:09:52.361Z,22.80
2023-05-20T16:12:19.955Z,22.70
2023-05-20T16:14:47.070Z,22.60
2023-05-20T16:17:14.070Z,22.60
2023-05-20T16:19:41.058Z,22.60
2023-05-20T16:22:08.105Z,22.60
2023-05-20T16:24:35.399Z,22.60
2023-05-20T16:27:06.566Z,22.60
2023-05-20T16:29:33.710Z,22.50
2023-05-20T16:32:01.099Z,22.40
2023-05-20T16:34:28.133Z,22.50
2023-05-20T16:36:55.110Z,22.40
2023-05-20T16:39:22.100Z,22.30
2023-05-20T16:41:49.306Z,22.10
2023-05-20T16:44:17.780Z,22.00
2023-05-20T16:46:44.777Z,21.90
2023-05-20T16:49:11.852Z,21.60
2023-05-20T16:51:38.826Z,21.50
2023-05-20T16:54:05.776Z,21.40
2023-05-20T16:56:32.861Z,21.30
2023-05-20T16:58:59.802Z,21.30
2023-05-20T17:01:28.208Z,21.20
2023-05-20T17:03:55.268Z,21.20
2023-05-20T17:06:22.278Z,21.20
2023-05-20T17:08:49.275Z,21.20
2023-05-20T17:11:16.317Z,21.20
2023-05-20T17:13:43.267Z,21.20
2023-05-20T17:16:10.374Z,21.20
2023-05-20T17:18:38.798Z,21.10
2023-05-20T17:21:06.009Z,21.10
2023-05-20T17:23:32.969Z,21.10
2023-05-20T17:26:00.180Z,21.00
2023-05-20T17:28:27.103Z,21.10
2023-05-20T17:30:54.059Z,21.20
2023-05-20T17:33:21.247Z,21.30
2023-05-20T17:35:49.743Z,21.10
2023-05-20T17:38:16.684Z,21.20
2023-05-20T17:40:43.647Z,20.90
2023-05-20T17:43:10.613Z,20.60
2023-05-20T17:45:37.527Z,20.50
2023-05-20T17:48:04.837Z,20.50
2023-05-20T17:50:31.896Z,20.50
2023-05-20T17:53:00.357Z,20.40
2023-05-20T17:55:27.296Z,20.30
2023-05-20T17:57:54.310Z,20.30
2023-05-20T18:00:21.329Z,20.20
2023-05-20T18:02:48.493Z,20.20
2023-05-20T18:05:15.675Z,20.20
2023-05-20T18:07:42.803Z,20.10
2023-05-20T18:10:11.453Z,20.00
2023-05-20T18:12:38.688Z,20.00
2023-05-20T18:15:06.880Z,20.00
2023-05-20T18:17:33.816Z,20.00
2023-05-20T18:20:00.812Z,20.00
2023-05-20T18:22:28.050Z,19.90
2023-05-20T18:24:55.009Z,19.90
2023-05-20T18:27:23.373Z,19.90
2023-05-20T18:29:50.338Z,19.80
2023-05-20T18:32:17.593Z,19.80
2023-05-20T18:34:44.564Z,19.80
2023-05-20T18:37:11.585Z,19.70
2023-05-20T18:39:38.598Z,19.70
2023-05-20T18:42:06.191Z,19.70
2023-05-20T18:44:34.539Z,19.70
2023-05-20T18:47:01.592Z,19.60
2023-05-20T18:49:28.545Z,19.50
2023-05-20T18:51:55.506Z,19.50
2023-05-20T18:54:22.495Z,19.60
2023-05-20T18:56:49.621Z,19.50
2023-05-20T18:59:16.634Z,19.50
2023-05-20T19:01:45.015Z,19.50
2023-05-20T19:04:11.932Z,19.40
2023-05-20T19:06:38.943Z,19.40
2023-05-20T19:09:05.989Z,19.40
2023-05-20T19:11:32.985Z,19.30
2023-05-20T19:13:59.901Z,19.30
2023-05-20T19:16:27.270Z,19.30
2023-05-20T19:18:55.666Z,19.20
2023-05-20T19:21:22.708Z,19.10
2023-05-20T19:23:49.728Z,19.00
2023-05-20T19:26:17.404Z,19.00
2023-05-20T19:28:44.500Z,18.90
2023-05-20T19:31:11.567Z,18.90
2023-05-20T19:33:38.529Z,18.80
2023-05-20T19:36:07.449Z,18.80
2023-05-20T19:38:34.380Z,18.80
2023-05-20T19:41:01.335Z,18.80
2023-05-20T19:43:28.253Z,18.70
2023-05-20T19:45:55.314Z,18.60
2023-05-20T19:48:22.490Z,18.60
2023-05-20T19:50:49.455Z,18.70
2023-05-20T19:53:17.851Z,18.50
2023-05-20T19:55:45.117Z,18.50
2023-05-20T19:58:12.041Z,18.50
2023-05-20T20:00:39.185Z,18.50
2023-05-20T20:03:06.606Z,18.50
2023-05-20T20:05:34.716Z,18.40
2023-05-20T20:08:01.862Z,18.30
2023-05-20T20:10:30.160Z,18.30
2023-05-20T20:12:57.179Z,18.20
2023-05-20T20:15:24.333Z,18.20
2023-05-20T20:17:51.316Z,18.30
2023-05-20T20:20:18.432Z,18.20
2023-05-20T20:22:45.577Z,18.10
2023-05-20T20:25:12.708Z,18.10
2023-05-20T20:27:41.110Z,18.10
2023-05-20T20:30:09.268Z,18.10
2023-05-20T20:32:37.814Z,18.00
2023-05-20T20:35:05.722Z,18.00
2023-05-20T20:37:32.681Z,17.90
2023-05-20T20:39:59.604Z,17.90
2023-05-20T20:42:26.883Z,17.90
2023-05-20T20:44:55.221Z,17.90
2023-05-20T20:47:22.187Z,17.80
2023-05-20T20:49:49.151Z,17.80
2023-05-20T20:52:16.116Z,17.70
2023-05-20T20:54:43.499Z,17.70
2023-05-20T20:57:10.566Z,17.70
2023-05-20T20:59:37.575Z,17.60
2023-05-20T21:02:06.419Z,17.60
2023-05-20T21:04:33.456Z,17.60
2023-05-20T21:07:01.577Z,17.60
2023-05-20T21:09:28.763Z,17.50
2023-05-20T21:11:55.694Z,17.50
2023-05-20T21:14:22.676Z,17.50
2023-05-20T21:16:49.749Z,17.50
2023-05-20T21:19:18.196Z,17.40
2023-05-20T21:21:45.418Z,17.40
2023-05-20T21:24:12.334Z,17.40
2023-05-20T21:26:39.295Z,17.40
2023-05-20T21:29:06.436Z,17.30
2023-05-20T21:31:34.095Z,17.30
2023-05-20T21:34:01.069Z,17.20
2023-05-20T21:36:29.402Z,17.20
2023-05-20T21:38:56.571Z,17.20
2023-05-20T21:41:23.796Z,17.10
2023-05-20T21:43:50.805Z,17.10
2023-05-20T21:46:17.831Z,17.10
2023-05-20T21:48:44.791Z,17.00
2023-05-20T21:51:11.908Z,17.00
2023-05-20T21:53:40.187Z,17.00
2023-05-20T21:56:07.286Z,17.00
2023-05-20T21:58:34.287Z,17.00
2023-05-20T22:01:01.209Z,17.00
2023-05-20T22:03:28.290Z,17.00
2023-05-20T22:05:55.437Z,16.90
2023-05-20T22:08:22.513Z,16.80
2023-05-20T22:10:50.961Z,16.80
2023-05-20T22:13:17.961Z,16.80
2023-05-20T22:15:44.992Z,16.80
2023-05-20T22:18:11.971Z,16.70
2023-05-20T22:20:39.062Z,16.70
2023-05-20T22:23:05.999Z,16.50
2023-05-20T22:25:33.010Z,16.50
2023-05-20T22:28:01.677Z,16.40
2023-05-20T22:30:28.646Z,16.40
2023-05-20T22:32:55.945Z,16.30
2023-05-20T22:35:22.924Z,16.20
2023-05-20T22:37:50.055Z,16.20
2023-05-20T22:40:17.399Z,16.00
2023-05-20T22:42:44.426Z,16.00
2023-05-20T22:45:12.852Z,16.00
2023-05-20T22:47:39.911Z,16.00
2023-05-20T22:50:08.366Z,16.00
2023-05-20T22:52:35.505Z,16.10
2023-05-20T22:55:02.545Z,16.10
2023-05-20T22:57:29.581Z,16.00
2023-05-20T22:59:56.525Z,16.00
2023-05-20T23:02:24.847Z,16.10
2023-05-20T23:04:51.961Z,16.10
2023-05-20T23:07:19.019Z,16.10
2023-05-20T23:09:46.036Z,16.00
2023-05-20T23:12:12.992Z,16.00
2023-05-20T23:14:39.952Z,16.10
2023-05-20T23:17:07.117Z,16.00
2023-05-20T23:19:35.663Z,16.00
2023-05-20T23:22:02.631Z,16.00
2023-05-20T23:24:29.576Z,16.00
2023-05-20T23:26:56.568Z,16.00
2023-05-20T23:29:23.543Z,16.00
2023-05-20T23:31:51.166Z,16.00
2023-05-20T23:34:18.317Z,16.00
2023-05-20T23:36:46.669Z,15.90
2023-05-20T23:39:13.966Z,15.90
2023-05-20T23:41:42.238Z,15.90
2023-05-20T23:44:09.239Z,15.90
2023-05-20T23:46:36.198Z,15.90
2023-05-20T23:49:03.214Z,15.80
2023-05-20T23:51:30.175Z,15.80
2023-05-20T23:53:58.855Z,15.80
2023-05-20T23:56:25.841Z,15.70
2023-05-20T23:58:52.796Z,15.70
